Flight Track Log - Related Links

Times and Time Zones

All times are in EDT time to prevent confusion due to time zone crossing. See the DAL2352 flight status page for this flight to view local times or setup timezone preferences in your user account.

Time Position Orientation Groundspeed Altitude Reporting Facility
EDT Latitude Longitude Course Direction KTS MPH feet Rate Location/Type
Wed 06:29:37 AM 42.7236 -73.8081 207° Southwest 147 169 1,500  Level Boston Center
Wed 06:30:44 AM 42.6794 -73.8381 207° Southwest 225 259 3,100 1,554 Climbing Boston Center
Wed 06:31:29 AM 42.7081 -73.8925 306° West 278 320 4,400 2,457 Climbing Boston Center
Wed 06:32:29 AM 42.7633 -73.9531 321° Northwest 285 328 7,400 2,800 Climbing Boston Center
Wed 06:33:29 AM 42.8208 -74.0253 317° Northwest 285 328 10,000 2,750 Climbing Boston Center
Wed 06:34:29 AM 42.8317 -74.1358 278° West 262 302 12,900 2,300 Climbing Boston Center
Wed 06:35:29 AM 42.8200 -74.2261 260° West 272 313 14,600 1,500 Climbing Boston Center
Wed 06:36:29 AM 42.7261 -74.2264 180° South 211 243 15,900 1,100 Climbing Boston Center
Wed 06:37:29 AM 42.6308 -74.1897 164° South 366 421 16,800 1,350 Climbing Boston Center
Wed 06:38:29 AM 42.5086 -74.1411 164° South 402 463 18,600 1,600 Climbing Boston Center
Wed 06:39:29 AM 42.4050 -74.1019 164° South 415 478 20,000 1,500 Climbing Boston Center
Wed 06:40:29 AM 42.2847 -74.0536 163° South 434 499 21,600 1,500 Climbing Boston Center
Wed 06:41:29 AM 42.1578 -74.0364 174° South 447 514 23,000 1,300 Climbing Boston Center
Wed 06:42:29 AM 42.0361 -74.0922 199° South 455 524 24,200 1,408 Climbing Boston Center
Wed 06:44:28 AM 41.7947 -74.2069 200° South 477 549 27,200 1,575 Climbing New York Center
Wed 06:45:28 AM 41.6722 -74.2592 198° South 482 555 28,900 1,339 Climbing New York Center
Wed 06:46:29 AM 41.5542 -74.3083 197° South 477 549 29,900 1,059 Climbing New York Center
Wed 06:47:27 AM 41.4297 -74.3653 199° South 461 531 31,000 1,109 Climbing New York Center
Wed 06:48:28 AM 41.3114 -74.4169 198° South 461 531 32,100 950 Climbing New York Center
Wed 06:49:27 AM 41.1869 -74.4708 198° South 466 536 32,900 555 Climbing New York Center
Wed 06:50:27 AM 41.0644 -74.5247 198° South 466 536 33,200 -347 Climbing New York Center
Wed 06:51:28 AM 40.9422 -74.5703 196° South 466 536 32,200 -600 Descending New York Center
Wed 06:52:27 AM 40.8431 -74.6717 218° Southwest 455 524 32,000 -101 Descending New York Center
Wed 06:53:27 AM 40.7575 -74.7983 228° Southwest 455 524 32,000  Level New York Center
Wed 06:54:29 AM 40.6717 -74.9272 229° Southwest 461 531 32,000  Level New York Center
Wed 06:55:28 AM 40.5883 -75.0478 228° Southwest 466 536 32,000  Level New York Center
Wed 06:56:29 AM 40.5025 -75.1708 227° Southwest 466 536 32,000  Level New York Center
Wed 06:57:27 AM 40.4167 -75.2908 227° Southwest 461 531 32,000  Level New York Center
Wed 06:58:27 AM 40.3306 -75.4158 228° Southwest 461 531 32,000  Level New York Center
Wed 06:59:28 AM 40.2444 -75.5350 227° Southwest 461 531 32,000  Level New York Center
Wed 07:00:29 AM 40.1700 -75.6714 234° Southwest 461 531 32,000  Level New York Center
Wed 07:01:29 AM 40.1017 -75.8103 237° Southwest 461 531 32,000  Level New York Center
Wed 07:02:28 AM 40.0333 -75.9436 236° Southwest 461 531 32,000  Level New York Center
Wed 07:03:29 AM 39.9628 -76.0819 236° Southwest 456 525 32,000  Level New York Center
Wed 07:04:27 AM 39.8808 -76.2272 234° Southwest 456 525 32,000  Level New York Center
Wed 07:05:28 AM 39.7939 -76.3475 227° Southwest 462 532 32,000  Level New York Center
Wed 07:06:28 AM 39.7050 -76.4647 225° Southwest 462 532 32,000  Level New York Center
Wed 07:07:32 AM 39.6200 -76.5803 226° Southwest 444 511 32,000  Level Washington Center
Wed 07:08:33 AM 39.5336 -76.6947 226° Southwest 439 505 32,000  Level Washington Center
Wed 07:09:33 AM 39.4450 -76.8089 225° Southwest 445 512 32,000  Level Washington Center
Wed 07:10:31 AM 39.3561 -76.9256 225° Southwest 450 518 32,000  Level Washington Center
Wed 07:11:32 AM 39.2694 -77.0419 226° Southwest 450 518 32,000  Level Washington Center
Wed 07:12:31 AM 39.1806 -77.1581 225° Southwest 450 518 32,000  Level Washington Center
Wed 07:13:32 AM 39.0914 -77.2764 226° Southwest 450 518 32,000  Level Washington Center
Wed 07:14:33 AM 38.9936 -77.3997 224° Southwest 450 518 32,000  Level Washington Center
Wed 07:15:30 AM 38.9064 -77.5150 226° Southwest 450 518 32,000  Level Washington Center
Wed 07:16:31 AM 38.8106 -77.6325 224° Southwest 462 532 32,000  Level Washington Center
Wed 07:17:32 AM 38.7208 -77.7522 226° Southwest 468 539 32,000  Level Washington Center
Wed 07:18:33 AM 38.6333 -77.8719 227° Southwest 468 539 32,000  Level Washington Center
Wed 07:19:31 AM 38.5600 -77.9997 234° Southwest 462 532 32,000  Level Washington Center
Wed 07:20:32 AM 38.4822 -78.1300 233° Southwest 462 532 32,000  Level Washington Center
Wed 07:21:32 AM 38.4042 -78.2625 233° Southwest 462 532 32,000  Level Washington Center
Wed 07:22:31 AM 38.3242 -78.3944 232° Southwest 473 544 32,000  Level Washington Center
Wed 07:23:31 AM 38.2481 -78.5239 233° Southwest 473 544 32,000  Level Washington Center
Wed 07:24:32 AM 38.1758 -78.6531 235° Southwest 465 535 32,000  Level Washington Center
Wed 07:25:33 AM 38.1042 -78.7717 233° Southwest 471 542 32,000  Level Washington Center
Wed 07:26:33 AM 38.0275 -78.9028 233° Southwest 471 542 32,000  Level Washington Center
Wed 07:27:30 AM 37.9467 -79.0336 232° Southwest 471 542 32,000  Level Washington Center
Wed 07:28:32 AM 37.8658 -79.1586 231° Southwest 471 542 32,000  Level Washington Center
Wed 07:29:32 AM 37.7681 -79.2906 227° Southwest 471 542 32,000  Level Washington Center
Wed 07:30:33 AM 37.6872 -79.3997 227° Southwest 471 542 32,000  Level Washington Center
Wed 07:31:31 AM 37.5911 -79.5336 228° Southwest 477 549 32,000  Level Washington Center
Wed 07:32:31 AM 37.5125 -79.6422 228° Southwest 477 549 32,000  Level Washington Center
Wed 07:33:33 AM 37.4117 -79.7806 227° Southwest 485 558 32,000  Level Washington Center
Wed 07:34:30 AM 37.3242 -79.8986 227° Southwest 480 552 32,000  Level Washington Center
Wed 07:36:12 AM 37.1833 -80.0897 227° Southwest 459 528 32,000  Level Atlanta Center
Wed 07:37:12 AM 37.0875 -80.2219 228° Southwest 465 535 32,000  Level Atlanta Center
Wed 07:38:12 AM 36.9992 -80.3381 226° Southwest 465 535 32,000  Level Atlanta Center
Wed 07:39:12 AM 36.9111 -80.4564 227° Southwest 465 535 32,000  Level Atlanta Center
Wed 07:40:12 AM 36.8328 -80.5608 227° Southwest 460 529 32,000  Level Atlanta Center
Wed 07:41:12 AM 36.7461 -80.6736 226° Southwest 460 529 32,000  Level Atlanta Center
Wed 07:42:12 AM 36.6619 -80.7911 228° Southwest 454 522 32,000  Level Atlanta Center
Wed 07:43:12 AM 36.5731 -80.9083 227° Southwest 459 528 32,000  Level Atlanta Center
Wed 07:44:12 AM 36.4842 -81.0228 226° Southwest 459 528 32,000  Level Atlanta Center
Wed 07:45:12 AM 36.3953 -81.1422 227° Southwest 459 528 32,000  Level Atlanta Center
Wed 07:46:12 AM 36.3022 -81.2692 228° Southwest 459 528 32,000  Level Atlanta Center
Wed 07:47:12 AM 36.2131 -81.3831 226° Southwest 459 528 32,000  Level Atlanta Center
Wed 07:48:12 AM 36.1239 -81.5017 227° Southwest 459 528 32,000  Level Atlanta Center
Wed 07:49:12 AM 36.0344 -81.6175 226° Southwest 465 535 32,000  Level Atlanta Center
Wed 07:50:12 AM 35.9447 -81.7328 226° Southwest 459 528 32,000  Level Atlanta Center
Wed 07:51:12 AM 35.8572 -81.8508 228° Southwest 467 537 32,000  Level Atlanta Center
Wed 07:52:12 AM 35.7633 -81.9683 225° Southwest 472 543 32,000  Level Atlanta Center
Wed 07:53:12 AM 35.6756 -82.0806 226° Southwest 472 543 32,000  Level Atlanta Center
Wed 07:54:12 AM 35.5856 -82.1925 225° Southwest 467 537 32,000  Level Atlanta Center
Wed 07:55:12 AM 35.4953 -82.3042 225° Southwest 467 537 32,000 -450 Level Atlanta Center
Wed 07:56:12 AM 35.4072 -82.4156 226° Southwest 454 522 31,100 -1,000 Descending Atlanta Center
Wed 07:57:12 AM 35.3231 -82.5242 226° Southwest 454 522 30,000 -1,050 Descending Atlanta Center
Wed 07:58:12 AM 35.2469 -82.6172 225° Southwest 454 522 29,000 -500 Descending Atlanta Center
Wed 07:59:12 AM 35.1644 -82.7175 225° Southwest 438 504 29,000 -550 Level Atlanta Center
Wed 08:00:12 AM 35.0822 -82.8206 226° Southwest 431 496 27,900 -1,050 Descending Atlanta Center
Wed 08:01:12 AM 35.0081 -82.9178 227° Southwest 416 479 26,900 -1,050 Descending Atlanta Center
Wed 08:02:12 AM 34.9294 -83.0128 225° Southwest 403 464 25,800 -1,000 Descending Atlanta Center
Wed 08:03:12 AM 34.8467 -83.1125 225° Southwest 390 449 24,900 -800 Descending Atlanta Center
Wed 08:04:12 AM 34.7744 -83.2017 225° Southwest 379 436 24,200 -650 Descending Atlanta Center
Wed 08:05:12 AM 34.6997 -83.2933 225° Southwest 384 442 23,600 -700 Descending Atlanta Center
Wed 08:06:12 AM 34.6211 -83.3700 219° Southwest 371 427 22,800 -750 Descending Atlanta Center
Wed 08:07:12 AM 34.5756 -83.4636 239° Southwest 357 411 22,100 -1,100 Descending Atlanta Center
Wed 08:08:12 AM 34.5428 -83.5772 251° West 359 413 20,600 -1,050 Descending Atlanta Center
Wed 08:09:12 AM 34.5158 -83.6883 254° West 354 407 20,000 -1,050 Descending Atlanta Center
Wed 08:10:12 AM 34.4847 -83.7994 251° West 349 402 18,500 -1,600 Descending Atlanta Center
Wed 08:11:12 AM 34.4267 -83.8775 228° Southwest 322 371 16,800 -1,650 Descending Atlanta Center
Wed 08:12:12 AM 34.3389 -83.9031 194° South 308 354 15,200 -1,550 Descending Atlanta Center
Wed 08:13:12 AM 34.2472 -83.9231 190° South 321 369 13,700 -1,550 Descending Atlanta Center
Wed 08:14:12 AM 34.1533 -83.9458 191° South 321 369 12,100 -1,500 Descending Atlanta Center
Wed 08:15:12 AM 34.0697 -83.9661 191° South 310 357 10,700 -1,442 Descending Atlanta Center
Wed 08:16:21 AM 33.9833 -83.9667 180° South 296 341 9,000 -756 Descending Atlanta TRACON
Wed 08:17:27 AM 33.8833 -83.9500 172° South 294 338 9,000 -270 Level Atlanta TRACON
Wed 08:18:12 AM 33.8233 -83.9514 181° South 304 350 8,500 -800 Descending Atlanta Center
Wed 08:19:12 AM 33.7442 -83.9514 180° South 292 336 7,600 -750 Descending Atlanta Center
Wed 08:20:12 AM 33.6731 -83.9464 177° South 292 336 7,000 -300 Descending Atlanta Center
Wed 08:21:12 AM 33.6356 -83.9964 228° Southwest 202 232 7,000 -585 Level Atlanta Center
Wed 08:23:27 AM 33.6333 -84.1500 269° West 194 223 5,100 -862 Descending Atlanta TRACON
Wed 08:24:27 AM 33.6333 -84.2167 270° West 191 220 4,200 -950 Descending Atlanta TRACON
Wed 08:25:27 AM 33.6333 -84.2833 270° West 187 215 3,200 -950 Descending Atlanta TRACON
Wed 08:26:27 AM 33.6333 -84.3333 270° West 168 193 2,300 -850 Descending Atlanta TRACON
Wed 08:27:27 AM 33.6333 -84.3833 270° West 145 167 1,500 -800 Descending Atlanta TRACON
Wed 08:29:00 AM 33.6367 -84.4279 270° West  Level Estimated
Wed 08:36:00 AM 33.6367 -84.4279 64° Northeast  Level Estimated

Login

Don't have an account? Register now (free) for customized features, flight alerts, and more!